Steptoe Valley WMA, Nevada Weather observations

Data are for 10 minute period ending at time listed.
 Day   Time   Solar   Ave.   Ave.  Ave.  Vector  Max.   Baro.   Total    
  of    of     Rad.   Air    Rel.  Wind   Wind   Wind  Press.  Precip.   
Year   Day            Temp.  Hum.  Speed  Dir.   Gust                    
2015   (PST)  Kw/m2    F      %     mph   deg.    mph    mb.     in.     
-------------------------------------------------------------------------
 141   14:00   0.94   55.5    44    3.2    69     7.0   798.4    0.00 
 141   14:10   0.99   58.2    38    6.3   151    13.8   798.4    0.00 
 141   14:20   0.65   56.5    41    7.7   118    16.1   798.3    0.00 
 141   14:30   0.85   57.2    40    6.3   133    14.2   798.2    0.00 
 141   14:40   0.80   57.4    38    5.2   109    11.5   798.1    0.00 
 141   14:50   0.75   58.2    37    5.6   126    12.1   797.9    0.00 
 141   15:00   0.74   58.8    35    4.3   198     9.2   797.8    0.00 
 141   15:10   0.63   58.9    34    7.1   130    14.3   797.7    0.00 
 141   15:20   0.17   57.3    36    9.8   183    15.3   797.8    0.00 
 141   15:30   0.08   54.6    45   13.5   156    27.5   798.0    0.00 
 141   15:40   0.04   48.6    65   19.7   155    28.1   798.4    0.00 
 141   15:50   0.03   44.7    80   14.0   146    22.1   798.7    0.00 
 141   16:00   0.02   44.5    81    8.7   133    15.5   798.8    0.00 
 141   16:10   0.02   44.9    82    7.3   138    14.8   798.7    0.00 
 141   16:20   0.02   45.7    78    8.1   132    13.2   798.6    0.00 
 141   16:30   0.04   46.6    73    7.5   120    12.2   798.4    0.00 
 141   16:40   0.08   48.1    65    5.5    89    11.2   798.0    0.00 
 141   16:50   0.12   48.7    66    4.0   152     9.3   798.1    0.00 
 141   17:00   0.14   49.2    66    5.0   194     7.5   798.1    0.00 
 141   17:10   0.13   49.1    66    2.6   215     5.3   798.1    0.00 
 141   17:20   0.10   49.5    65    1.5   164     3.5   797.9    0.00 
 141   17:30   0.09   49.6    68    4.1   148     7.6   797.9    0.00 
 141   17:40   0.09   49.4    69    5.4   139     8.0   798.0    0.00 
 141   17:50   0.07   49.4    65    6.2   145     8.8   798.1    0.00 
 141   18:00   0.07   49.2    66    5.8   148     8.6   798.2    0.00 
 141   18:10   0.04   48.9    67    5.5   146     7.5   798.2    0.00 
 141   18:20   0.03   48.1    72    3.8   151     6.5   798.3    0.00 
 141   18:30   0.02   47.1    77    4.6   134     6.0   798.3    0.00 
 141   18:40   0.01   46.6    80    4.8   123     5.9   798.2    0.00 
 141   18:50   0.01   46.5    76    2.9   165     4.6   798.2    0.00 
 141   19:00   0.00   45.6    76    3.2   176     4.1   798.3    0.00 
 141   19:10   0.00   43.6    82    3.0   172     4.1   798.4    0.00 
 141   19:20   0.00   42.8    84    3.4   175     4.2   798.5    0.00 
 141   19:30   0.00   42.7    83    3.6   152     6.7   798.6    0.00 
 141   19:40   0.00   44.7    75    5.8   126     7.1   798.5    0.00 
 141   19:50   0.00   44.2    73    4.5   143     6.6   798.6    0.00 
 141   20:00   0.00   40.8    80    4.1   175     5.8   798.6    0.00 
 141   20:10   0.00   40.0    84    4.2   178     6.1   798.6    0.00 
 141   20:20   0.00   38.7    83    3.2   171     4.6   798.7    0.00 
 141   20:30   0.00   37.5    86    2.9   171     4.0   798.9    0.00 
 141   20:40   0.00   37.6    87    2.6   173     3.8   798.8    0.00 
 141   20:50   0.00   36.8    87    3.9   174     5.6   798.9    0.00 
 141   21:00   0.00   36.8    88    4.3   165     6.6   799.0    0.00 
 141   21:10   0.00   37.0    89    3.3   165     4.5   798.9    0.00 
 141   21:20   0.00   37.1    88    2.6   174     3.9   798.9    0.00 
 141   21:30   0.00   37.1    88    2.6   175     4.7   798.8    0.00 
 141   21:40   0.00   36.2    88    4.4   163     5.9   798.9    0.00 
 141   21:50   0.00   36.5    90    4.6   163     7.0   799.0    0.00 
 141   22:00   0.00   36.8    90    3.2   178     4.3   799.1    0.00 
 141   22:10   0.00   36.3    90    2.6    64     4.6   799.3    0.00 
 141   22:20   0.00   39.4    87    5.6   103     8.1   799.2    0.00 
 141   22:30   0.00   39.3    84    5.1    86     7.2   799.3    0.00 
 141   22:40   0.00   38.2    85    1.7    88     3.1   799.4    0.00 
 141   22:50   0.00   37.5    87    1.2   153     2.6   799.4    0.00 
 141   23:00   0.00   37.9    87    2.0   115     4.8   799.4    0.00 
 141   23:10   0.00   37.3    87    1.7   162     4.5   799.4    0.00 
 141   23:20   0.00   36.4    88    2.2   171     5.3   799.4    0.00 
 141   23:30   0.00   36.7    89    3.3   156     5.3   799.4    0.00 
 141   23:40   0.00   38.2    88    3.2   154     5.9   799.4    0.00 
 141   23:50   0.00   37.5    87    2.3    22     4.2   799.4    0.00 
 142    0:00   0.00   38.5    88    4.3   103     6.0   799.4    0.00 
 142    0:10   0.00   39.0    88    3.6   103     4.9   799.4    0.00 
 142    0:20   0.00   39.2    88    3.5    96     4.7   799.4    0.00 
 142    0:30   0.00   40.0    86    3.6   120     4.5   799.4    0.00 
 142    0:40   0.00   40.5    85    4.4   122     6.4   799.4    0.00 
 142    0:50   0.00   40.9    83    2.2   156     3.3   799.4    0.00 
 142    1:00   0.00   40.4    85    2.3   187     4.7   799.4    0.00 
 142    1:10   0.00   39.7    86    1.1   156     3.6   799.4    0.00 
 142    1:20   0.00   39.2    87    2.4   175     3.8   799.4    0.00 
 142    1:30   0.00   38.8    88    1.9   155     3.5   799.4    0.00 
 142    1:40   0.00   38.7    88    1.9   182     4.7   799.4    0.00 
 142    1:50   0.00   38.2    88    2.5   161     3.7   799.4    0.00 
 142    2:00   0.00   38.6    87    3.4   165     5.3   799.4    0.00 
 142    2:10   0.00   40.1    84    3.2   164     5.8   799.4    0.00 
 142    2:20   0.00   40.6    80    2.4   186     5.4   799.5    0.00 
 142    2:30   0.00   38.8    84    1.2   163     2.4   799.5    0.00 
 142    2:40   0.00   38.8    84    2.4   183     6.1   799.4    0.00 
 142    2:50   0.00   39.6    81    3.8   174     7.9   799.4    0.00 
 142    3:00   0.00   39.7    81    0.9   184     2.0   799.3    0.00 
 142    3:10   0.00   41.3    77    1.0    55     4.4   799.1    0.00 
 142    3:20   0.00   43.2    71    1.0   142     3.9   799.0    0.00 
 142    3:30   0.00   43.5    70    2.6   172     4.7   799.0    0.00 
 142    3:40   0.00   40.7    76    2.3   158     5.7   799.0    0.00 
 142    3:50   0.00   40.0    79    1.4   175     2.9   799.1    0.00 
 142    4:00   0.00   39.7    79    0.7   199     2.8   799.1    0.00 
 142    4:10   0.00   39.5    80    0.6   167     2.0   799.1    0.00 
 142    4:20   0.00   39.7    80    1.1    85     2.6   799.1    0.00 
 142    4:30   0.00   39.5    80    2.7    75     5.0   799.2    0.00 
 142    4:40   0.01   39.4    80    2.1    56     3.4   799.3    0.00 
 142    4:50   0.01   38.5    80    1.4   142     4.0   799.4    0.00 
 142    5:00   0.02   38.9    81    3.2   110     4.3   799.4    0.00 
 142    5:10   0.03   37.8    82    1.6   167     2.8   799.4    0.00 
 142    5:20   0.04   37.9    84    1.1   168     2.0   799.5    0.00 
 142    5:30   0.06   37.8    84    1.5   157     2.6   799.6    0.00 
 142    5:40   0.07   38.2    86    1.9   175     2.5   799.5    0.00 
 142    5:50   0.08   39.1    87    1.4   154     2.4   799.5    0.00 
 142    6:00   0.09   40.3    87    0.7   259     1.6   799.5    0.00 
 142    6:10   0.11   41.2    87    0.5   344     2.0   799.5    0.00 
 142    6:20   0.12   42.2    87    1.7     1     2.6   799.5    0.00 
 142    6:30   0.14   42.7    86    2.7   355     5.6   799.5    0.00 
 142    6:40   0.18   42.6    83    4.2   355     5.4   799.5    0.00 
 142    6:50   0.23   43.7    78    4.1   340     5.6   799.5    0.00 
 142    7:00   0.32   45.1    75    4.4   324     6.4   799.5    0.00 
 142    7:10   0.41   46.8    69    4.0   319     6.4   799.5    0.00 
 142    7:20   0.47   48.5    63    4.2   320     7.3   799.4    0.00 
 142    7:30   0.46   49.4    59    4.6   339     7.5   799.4    0.00 
 142    7:40   0.58   50.3    57    5.0     1     8.8   799.3    0.00 
 142    7:50   0.42   50.4    55    5.6   349     9.5   799.2    0.00 
 142    8:00   0.47   50.6    55    5.8   348     8.5   799.0    0.00 
 142    8:10   0.61   51.0    54    6.6   343    10.4   799.0    0.00 
 142    8:20   0.66   52.6    52    7.0   339    10.6   799.0    0.00 
 142    8:30   0.67   52.9    49    7.5   332    12.4   798.9    0.00 
 142    8:40   0.91   53.6    49    7.5   346    13.2   798.8    0.00 
 142    8:50   0.94   54.7    46    6.0   331    11.3   798.7    0.00 
 142    9:00   0.92   55.6    44    7.3   301    12.6   798.7    0.00 
 142    9:10   0.57   53.1    45   11.3   250    19.4   798.8    0.00 
 142    9:20   0.41   53.2    42    9.6   272    16.1   798.7    0.00 
 142    9:30   0.38   52.7    40    6.5   265    10.5   798.7    0.00 
 142    9:40   0.38   52.8    41    5.9   243    11.0   798.7    0.00 
 142    9:50   0.33   52.8    38    4.1   262     7.9   798.7    0.00 
 142   10:00   0.27   51.9    43   11.9   203    21.9   798.7    0.00 
 142   10:10   0.26   49.6    49   16.4   191    24.4   798.7    0.00 
 142   10:20   0.27   49.2    51   13.7   187    18.5   798.9    0.00 
 142   10:30   0.31   49.4    49   12.8   175    18.5   799.0    0.00 
 142   10:40   0.33   50.2    47   11.7   161    17.0   799.0    0.00 
 142   10:50   0.32   49.9    52   12.2   154    18.4   799.1    0.00 
 142   11:00   0.37   50.2    53   11.0   149    15.2   799.1    0.00 
 142   11:10   0.42   50.5    54   12.8   152    19.0   799.1    0.00 
 142   11:20   0.53   50.9    52   12.6   153    19.5   799.1    0.00 
 142   11:30   0.66   52.0    50   11.9   161    18.1   798.9    0.00 
 142   11:40   0.68   52.6    50   10.8   167    15.6   798.8    0.00 
 142   11:50   0.62   52.5    49    9.0   163    14.8   798.6    0.00 
 142   12:00   0.51   53.0    48    7.2   157    13.7   798.5    0.00 
 142   12:10   0.48   53.1    46    7.4   163    11.8   798.4    0.00 
 142   12:20   0.47   53.5    44    7.7   168    13.5   798.3    0.00 
 142   12:30   0.54   54.3    42    6.7   137    12.1   798.2    0.00 
 142   12:40   0.63   54.6    40    6.4   136    11.7   798.2    0.00 
 142   12:50   0.83   56.6    40    7.6   174    11.5   798.1    0.00 
 142   13:00   0.95   57.8    39   10.5   163    18.6   798.1    0.00 
 142   13:10   1.02   57.3    40   10.6   178    18.5   798.1    0.00 
 142   13:20   0.94   57.9    42   10.8   198    17.5   798.0    0.00 
 142   13:30   0.80   56.7    42    7.9   210    12.9   798.0    0.00 
 142   13:40   0.95   56.9    44    9.9   237    15.4   798.0    0.00 
 142   13:50   0.98   56.3    43   10.4   252    15.1   797.9    0.00 

Return to Steptoe Valley WMA graphs page.


Western Regional Climate Center,wrcc@dri.edu